Terminal Aerodrome Forecast
Issued by NWS Wilmington, OH

Current Version | Previous Version | Graphics & Text | Print | Product List | Glossary On
Versions: 1 2 3 4 5 6 7 8 9 10 11 12 13 14 15 16 17 18 19 20 21 22 23 24 25 26 27 28 29 30 31
356
FTUS41 KILN 242324
TAFDAY
TAF
KDAY 242324Z 2500/2524 12012G20KT 4SM -SHRA BR OVC006 WS020/18040KT
     FM250300 15012G22KT 2SM +SHRA BR VCTS OVC008CB WS020/18045KT
     FM250600 18016G26KT 4SM SHRA VCTS OVC015CB
     FM250800 20018G33KT P6SM -SHRA OVC015
     FM251100 25018G35KT P6SM BKN015
     FM251500 25015G25KT P6SM SCT020
     FM251800 25010G18KT P6SM SCT250
     FM252300 25008KT P6SM SCT250=

USA.gov is the U.S. government's official web portal to all federal, state and local government web resources and services.